createdAt,value
2017-09-15T00:02:02.367Z,22.53
2017-09-15T00:04:29.873Z,21.93
2017-09-15T00:06:58.190Z,22.47
2017-09-15T00:09:25.717Z,20.90
2017-09-15T00:11:53.220Z,22.40
2017-09-15T00:14:20.766Z,22.43
2017-09-15T00:16:48.276Z,24.67
2017-09-15T00:19:16.582Z,24.63
2017-09-15T00:21:44.102Z,23.07
2017-09-15T00:24:11.646Z,25.87
2017-09-15T00:26:39.166Z,23.47
2017-09-15T00:29:06.711Z,26.10
2017-09-15T00:31:34.238Z,23.37
2017-09-15T00:34:02.545Z,24.50
2017-09-15T00:36:30.068Z,25.80
2017-09-15T00:38:57.628Z,26.77
2017-09-15T00:41:25.137Z,25.23
2017-09-15T00:43:52.657Z,24.57
2017-09-15T00:46:20.968Z,24.00
2017-09-15T00:48:48.479Z,21.93
2017-09-15T00:51:16.004Z,23.03
2017-09-15T00:53:43.511Z,24.23
2017-09-15T00:56:11.799Z,24.33
2017-09-15T00:58:39.327Z,22.70
2017-09-15T01:01:06.859Z,21.77
2017-09-15T01:03:34.386Z,22.80
2017-09-15T01:06:01.896Z,21.97
2017-09-15T01:08:29.431Z,20.80
2017-09-15T01:10:56.936Z,20.53
2017-09-15T01:13:25.235Z,19.80
2017-09-15T01:15:52.752Z,18.97
2017-09-15T01:18:20.302Z,21.43
2017-09-15T01:20:47.818Z,19.20
2017-09-15T01:23:15.343Z,19.93
2017-09-15T01:25:43.649Z,18.20
2017-09-15T01:28:11.151Z,17.87
2017-09-15T01:30:38.684Z,18.07
2017-09-15T01:33:06.188Z,19.17
2017-09-15T01:35:33.710Z,18.50
2017-09-15T01:38:01.248Z,16.80
2017-09-15T01:40:28.765Z,17.47
2017-09-15T01:42:57.083Z,17.30
2017-09-15T01:45:24.592Z,17.70
2017-09-15T01:47:53.619Z,16.47
2017-09-15T01:50:21.148Z,18.57
2017-09-15T01:52:48.651Z,18.73
2017-09-15T01:55:16.188Z,18.63
2017-09-15T01:57:43.697Z,19.73
2017-09-15T02:00:11.218Z,19.20
2017-09-15T02:02:38.744Z,20.80
2017-09-15T02:05:07.020Z,21.23
2017-09-15T02:07:35.324Z,20.20
2017-09-15T02:10:02.862Z,21.30
2017-09-15T02:12:31.140Z,22.10
2017-09-15T02:14:59.431Z,21.23
2017-09-15T02:17:27.011Z,21.60
2017-09-15T02:19:54.549Z,20.57
2017-09-15T02:22:22.129Z,20.90
2017-09-15T02:24:49.670Z,20.93
2017-09-15T02:27:17.198Z,19.40
2017-09-15T02:29:44.794Z,17.80
2017-09-15T02:32:12.312Z,14.47
2017-09-15T02:34:40.653Z,15.00
2017-09-15T02:37:08.193Z,14.43
2017-09-15T02:39:35.704Z,15.67
2017-09-15T02:42:03.266Z,16.07
2017-09-15T02:44:30.793Z,16.13
2017-09-15T02:46:58.314Z,16.67
2017-09-15T02:49:25.845Z,14.83
2017-09-15T02:51:53.353Z,14.50
2017-09-15T02:54:20.977Z,13.40
2017-09-15T02:56:49.270Z,12.40
2017-09-15T02:59:16.826Z,14.60
2017-09-15T03:01:44.354Z,12.77
2017-09-15T03:04:11.871Z,13.00
2017-09-15T03:06:39.400Z,12.87
2017-09-15T03:09:06.918Z,14.23
2017-09-15T03:11:34.448Z,13.90
2017-09-15T03:14:01.964Z,13.27
2017-09-15T03:16:30.268Z,13.00
2017-09-15T03:18:57.780Z,13.20
2017-09-15T03:21:25.324Z,13.90
2017-09-15T03:23:52.832Z,12.80
2017-09-15T03:26:20.363Z,12.97
2017-09-15T03:28:48.641Z,11.67
2017-09-15T03:31:16.949Z,11.37
2017-09-15T03:33:44.452Z,11.90
2017-09-15T03:36:11.988Z,11.17
2017-09-15T03:38:39.510Z,11.33
2017-09-15T03:41:07.016Z,11.30
2017-09-15T03:43:34.570Z,11.90
2017-09-15T03:46:02.085Z,11.60
2017-09-15T03:48:30.370Z,11.87
2017-09-15T03:50:57.929Z,12.10
2017-09-15T03:53:25.441Z,13.43
2017-09-15T03:55:52.970Z,12.23
2017-09-15T03:58:20.514Z,12.63
2017-09-15T04:00:48.032Z,13.50
2017-09-15T04:03:15.555Z,11.17
2017-09-15T04:05:43.060Z,11.97
2017-09-15T04:08:11.360Z,12.00
2017-09-15T04:10:38.871Z,12.23
2017-09-15T04:13:06.375Z,11.33
2017-09-15T04:15:33.927Z,12.40
2017-09-15T04:18:02.140Z,10.60
2017-09-15T04:20:29.667Z,11.43
2017-09-15T04:22:57.188Z,11.40
2017-09-15T04:25:25.500Z,10.83
2017-09-15T04:27:53.008Z,9.77
2017-09-15T04:30:20.550Z,11.23
2017-09-15T04:32:48.057Z,11.07
2017-09-15T04:35:16.366Z,10.23
2017-09-15T04:37:43.863Z,8.77
2017-09-15T04:40:11.407Z,11.27
2017-09-15T04:42:38.927Z,10.87
2017-09-15T04:45:06.482Z,11.37
2017-09-15T04:47:33.991Z,11.37
2017-09-15T04:50:01.496Z,13.10
2017-09-15T04:52:29.038Z,12.77
2017-09-15T04:54:57.318Z,12.00
2017-09-15T04:57:25.635Z,11.50
2017-09-15T04:59:53.189Z,11.70
2017-09-15T05:02:20.692Z,11.77
2017-09-15T05:04:48.997Z,11.73
2017-09-15T05:07:16.521Z,11.03
2017-09-15T05:09:44.056Z,12.13
2017-09-15T05:12:11.578Z,10.40
2017-09-15T05:14:39.126Z,10.67
2017-09-15T05:17:07.400Z,9.83
2017-09-15T05:19:35.721Z,11.07
2017-09-15T05:22:03.219Z,9.70
2017-09-15T05:24:31.541Z,10.37
2017-09-15T05:26:59.083Z,11.80
2017-09-15T05:29:26.605Z,11.57
2017-09-15T05:31:54.140Z,11.47
2017-09-15T05:34:21.648Z,13.77
2017-09-15T05:36:49.921Z,14.47
2017-09-15T05:39:18.220Z,15.60
2017-09-15T05:41:45.746Z,16.57
2017-09-15T05:44:14.067Z,16.93
2017-09-15T05:46:41.592Z,15.70
2017-09-15T05:51:45.852Z,17.00
2017-09-15T05:54:13.374Z,17.20
2017-09-15T05:56:41.683Z,18.17
2017-09-15T05:59:09.190Z,16.40
2017-09-15T06:01:36.747Z,15.50
2017-09-15T06:04:04.262Z,17.77
2017-09-15T06:06:31.786Z,16.70
2017-09-15T06:09:00.088Z,16.07
2017-09-15T06:11:27.629Z,16.60
2017-09-15T06:13:55.161Z,17.53
2017-09-15T06:16:22.714Z,16.67
2017-09-15T06:18:50.239Z,16.17
2017-09-15T06:21:17.743Z,15.13
2017-09-15T06:23:46.044Z,15.47
2017-09-15T06:26:13.556Z,13.53
2017-09-15T06:28:41.092Z,12.27
2017-09-15T06:31:08.819Z,11.80
2017-09-15T06:33:36.332Z,13.80
2017-09-15T06:36:03.863Z,12.43
2017-09-15T06:38:31.368Z,11.90
2017-09-15T06:40:58.899Z,11.70
2017-09-15T06:43:26.422Z,11.83
2017-09-15T06:45:53.923Z,13.60
2017-09-15T06:48:21.475Z,14.90
2017-09-15T06:50:48.994Z,13.60
2017-09-15T06:53:16.500Z,15.33
2017-09-15T06:55:44.042Z,16.07
2017-09-15T06:58:11.568Z,17.10
2017-09-15T07:00:39.071Z,16.57
2017-09-15T07:03:06.618Z,16.20
2017-09-15T07:05:34.131Z,16.03
2017-09-15T07:08:02.423Z,14.93
2017-09-15T07:10:29.947Z,13.97
2017-09-15T07:12:57.479Z,12.23
2017-09-15T07:15:24.982Z,14.63
2017-09-15T07:17:53.275Z,14.07
2017-09-15T07:20:20.815Z,12.80
2017-09-15T07:22:48.329Z,13.27
2017-09-15T07:25:15.842Z,12.20
2017-09-15T07:27:43.394Z,12.87
2017-09-15T07:30:10.910Z,11.50
2017-09-15T07:32:38.428Z,10.40
2017-09-15T07:35:05.980Z,10.77
2017-09-15T07:37:34.248Z,10.37
2017-09-15T07:40:01.770Z,10.83
2017-09-15T07:42:29.291Z,11.40
2017-09-15T07:44:57.582Z,11.57
2017-09-15T07:47:25.104Z,11.10
2017-09-15T07:49:52.604Z,9.00
2017-09-15T07:52:21.238Z,9.57
2017-09-15T07:54:48.748Z,9.53
2017-09-15T07:57:16.307Z,9.40
2017-09-15T07:59:43.842Z,8.80
2017-09-15T08:02:12.108Z,9.87
2017-09-15T08:04:40.393Z,8.47
2017-09-15T08:07:08.661Z,8.23
2017-09-15T08:09:36.960Z,7.10
2017-09-15T08:12:04.471Z,7.43
2017-09-15T08:14:31.986Z,8.00
2017-09-15T08:16:59.520Z,7.70
2017-09-15T08:19:27.788Z,7.87
2017-09-15T08:21:56.086Z,7.77
2017-09-15T08:24:29.596Z,7.20
2017-09-15T08:26:57.116Z,7.53
2017-09-15T08:29:25.402Z,6.67
2017-09-15T08:31:53.696Z,7.47
2017-09-15T08:34:21.219Z,7.23
2017-09-15T08:36:48.759Z,5.40
2017-09-15T08:39:16.268Z,7.00
2017-09-15T08:41:43.822Z,6.30
2017-09-15T08:44:11.324Z,5.20
2017-09-15T08:46:38.824Z,4.30
2017-09-15T08:49:07.129Z,3.83
2017-09-15T08:51:34.679Z,5.10
2017-09-15T08:54:02.184Z,4.80
2017-09-15T08:56:29.679Z,4.30
2017-09-15T08:58:57.966Z,4.20
2017-09-15T09:01:25.510Z,4.07
2017-09-15T09:03:53.798Z,2.20
2017-09-15T09:06:21.324Z,3.20
2017-09-15T09:08:48.816Z,2.33
2017-09-15T09:11:16.335Z,2.33
2017-09-15T09:13:43.869Z,2.50
2017-09-15T09:16:11.380Z,1.70
2017-09-15T09:18:39.652Z,1.70
2017-09-15T09:21:07.961Z,1.60
2017-09-15T09:23:35.470Z,1.50
2017-09-15T09:26:02.964Z,1.63
2017-09-15T09:28:30.475Z,1.30
2017-09-15T09:30:58.099Z,1.37
2017-09-15T09:33:25.634Z,1.30
2017-09-15T09:35:53.150Z,1.63
2017-09-15T09:38:20.689Z,1.23
2017-09-15T09:40:48.208Z,1.40
2017-09-15T09:43:15.788Z,1.37
2017-09-15T09:45:43.335Z,1.20
2017-09-15T09:48:10.909Z,1.20
2017-09-15T09:50:38.404Z,1.30
2017-09-15T09:53:05.924Z,1.20
2017-09-15T09:55:33.424Z,1.00
2017-09-15T09:58:00.957Z,1.40
2017-09-15T10:00:28.474Z,1.27
2017-09-15T10:02:56.745Z,1.70
2017-09-15T10:05:25.051Z,1.30
2017-09-15T10:07:52.570Z,1.60
2017-09-15T10:10:20.867Z,1.47
2017-09-15T10:12:48.395Z,1.33
2017-09-15T10:15:15.888Z,1.40
2017-09-15T10:17:43.416Z,1.20
2017-09-15T10:20:10.916Z,1.50
2017-09-15T10:22:38.424Z,1.20
2017-09-15T10:25:05.963Z,1.30
2017-09-15T10:27:33.474Z,1.30
2017-09-15T10:30:01.050Z,1.27
2017-09-15T10:32:28.566Z,1.60
2017-09-15T10:34:56.887Z,1.30
2017-09-15T10:37:24.446Z,1.17
2017-09-15T10:39:51.958Z,1.50
2017-09-15T10:42:19.476Z,1.33
2017-09-15T10:44:46.998Z,1.57
2017-09-15T10:47:14.530Z,1.60
2017-09-15T10:49:42.031Z,1.10
2017-09-15T10:52:09.552Z,1.33
2017-09-15T10:54:37.071Z,1.77
2017-09-15T10:57:04.604Z,1.10
2017-09-15T10:59:37.906Z,1.30
2017-09-15T11:02:05.436Z,1.30
2017-09-15T11:04:33.717Z,1.23
2017-09-15T11:07:01.994Z,1.10
2017-09-15T11:09:29.546Z,1.50
2017-09-15T11:11:57.815Z,1.00
2017-09-15T11:14:26.104Z,1.10
2017-09-15T11:16:53.640Z,1.20
2017-09-15T11:19:21.156Z,1.07
2017-09-15T11:21:48.676Z,1.30
2017-09-15T11:24:16.950Z,1.53
2017-09-15T11:26:44.485Z,1.40
2017-09-15T11:29:12.001Z,1.67
2017-09-15T11:31:39.515Z,1.77
2017-09-15T11:34:07.811Z,1.17
2017-09-15T11:36:35.312Z,1.57
2017-09-15T11:39:02.821Z,1.13
2017-09-15T11:41:31.116Z,1.40
2017-09-15T11:43:58.627Z,2.00
2017-09-15T11:46:26.128Z,1.37
2017-09-15T11:48:53.699Z,1.40
2017-09-15T11:51:21.223Z,1.40
2017-09-15T11:53:49.484Z,1.57
2017-09-15T11:56:17.011Z,1.40
2017-09-15T11:58:44.522Z,1.20
2017-09-15T12:01:12.812Z,1.00
2017-09-15T12:03:40.359Z,1.50
2017-09-15T12:06:07.875Z,1.43
2017-09-15T12:08:35.391Z,1.40
2017-09-15T12:11:02.966Z,1.33
2017-09-15T12:13:30.482Z,1.40
2017-09-15T12:15:58.749Z,2.23
2017-09-15T12:18:27.043Z,1.30
2017-09-15T12:20:55.324Z,1.60
2017-09-15T12:23:22.856Z,2.07
2017-09-15T12:25:50.364Z,1.70
2017-09-15T12:28:17.856Z,1.30
2017-09-15T12:30:45.390Z,1.60
2017-09-15T12:33:12.896Z,1.57
2017-09-15T12:35:41.211Z,1.57
2017-09-15T12:38:08.713Z,1.70
2017-09-15T12:40:36.218Z,2.00
2017-09-15T12:43:03.758Z,1.57
2017-09-15T12:45:32.024Z,1.20
2017-09-15T12:48:00.296Z,1.80
2017-09-15T12:50:28.584Z,1.70
2017-09-15T12:52:57.188Z,1.60
2017-09-15T12:55:24.708Z,1.70
2017-09-15T12:57:52.220Z,1.87
2017-09-15T13:00:19.741Z,1.70
2017-09-15T13:02:48.008Z,1.67
2017-09-15T13:05:16.303Z,1.87
2017-09-15T13:07:43.836Z,3.27
2017-09-15T13:10:12.103Z,3.03
2017-09-15T13:12:39.642Z,3.07
2017-09-15T13:15:07.186Z,2.33
2017-09-15T13:17:34.705Z,1.70
2017-09-15T13:20:02.987Z,1.30
2017-09-15T13:22:30.520Z,1.73
2017-09-15T13:24:58.788Z,1.90
2017-09-15T13:27:26.302Z,1.33
2017-09-15T13:29:53.819Z,1.10
2017-09-15T13:32:21.330Z,1.30
2017-09-15T13:34:48.875Z,0.90
2017-09-15T13:37:16.389Z,0.90
2017-09-15T13:39:43.898Z,0.90
2017-09-15T13:42:11.555Z,1.17
2017-09-15T13:44:39.051Z,1.00
2017-09-15T13:47:06.675Z,1.10
2017-09-15T13:49:34.224Z,1.20
2017-09-15T13:52:01.728Z,1.17
2017-09-15T13:54:29.228Z,1.00
2017-09-15T13:56:56.777Z,1.00
2017-09-15T13:59:25.058Z,1.00
2017-09-15T14:01:53.334Z,0.90
2017-09-15T14:04:21.644Z,0.90
2017-09-15T14:06:49.157Z,0.90
2017-09-15T14:09:17.434Z,1.27
2017-09-15T14:11:45.738Z,1.17
2017-09-15T14:14:13.236Z,1.20
2017-09-15T14:16:40.748Z,1.20
2017-09-15T14:19:08.323Z,1.13
2017-09-15T14:21:35.816Z,1.00
2017-09-15T14:24:03.335Z,1.00
2017-09-15T14:26:30.874Z,1.13
2017-09-15T14:28:58.380Z,1.00
2017-09-15T14:31:25.891Z,1.03
2017-09-15T14:33:53.412Z,1.23
2017-09-15T14:36:20.925Z,1.00
2017-09-15T14:38:48.476Z,1.10
2017-09-15T14:41:15.989Z,0.93
2017-09-15T14:43:43.514Z,1.13
2017-09-15T14:46:11.066Z,1.23
2017-09-15T14:48:38.581Z,1.00
2017-09-15T14:51:06.843Z,1.10
2017-09-15T14:53:34.394Z,1.30
2017-09-15T14:56:01.904Z,1.40
2017-09-15T14:58:29.434Z,1.00
2017-09-15T15:00:57.754Z,1.10
2017-09-15T15:03:25.274Z,1.10
2017-09-15T15:05:53.557Z,1.10
2017-09-15T15:08:21.851Z,1.27
2017-09-15T15:10:49.366Z,1.30
2017-09-15T15:13:16.891Z,1.47
2017-09-15T15:15:44.435Z,1.50
2017-09-15T15:18:11.959Z,1.80
2017-09-15T15:20:40.220Z,1.77
2017-09-15T15:23:07.758Z,1.60
2017-09-15T15:25:35.275Z,2.20
2017-09-15T15:28:02.812Z,1.90
2017-09-15T15:30:31.071Z,1.90
2017-09-15T15:33:00.076Z,1.80
2017-09-15T15:35:28.374Z,2.53
2017-09-15T15:37:55.905Z,3.20
2017-09-15T15:40:24.201Z,3.47
2017-09-15T15:42:52.466Z,3.10
2017-09-15T15:45:20.776Z,2.90
2017-09-15T15:47:48.289Z,2.50
2017-09-15T15:50:15.816Z,1.90
2017-09-15T15:52:43.326Z,2.40
2017-09-15T15:55:11.732Z,2.63
2017-09-15T15:57:39.228Z,2.60
2017-09-15T16:00:06.851Z,2.80
2017-09-15T16:02:34.391Z,3.63
2017-09-15T16:05:01.942Z,3.30
2017-09-15T16:07:29.486Z,2.80
2017-09-15T16:09:57.839Z,2.43
2017-09-15T16:12:25.379Z,2.40
2017-09-15T16:14:52.876Z,2.63
2017-09-15T16:17:20.415Z,2.73
2017-09-15T16:19:47.917Z,2.80
2017-09-15T16:22:15.435Z,3.10
2017-09-15T16:24:42.941Z,2.60
2017-09-15T16:27:10.476Z,2.60
2017-09-15T16:29:38.744Z,2.50
2017-09-15T16:32:07.027Z,1.80
2017-09-15T16:34:35.445Z,1.70
2017-09-15T16:37:02.964Z,1.80
2017-09-15T16:39:36.923Z,2.10
2017-09-15T16:42:10.112Z,2.10
2017-09-15T16:44:43.416Z,2.10
2017-09-15T16:47:16.516Z,1.97
2017-09-15T16:49:43.555Z,2.23
2017-09-15T16:52:11.056Z,2.63
2017-09-15T16:54:39.327Z,2.50
2017-09-15T16:57:07.624Z,3.00
2017-09-15T16:59:35.132Z,2.33
2017-09-15T17:02:02.640Z,2.60
2017-09-15T17:04:30.159Z,2.43
2017-09-15T17:06:57.668Z,2.30
2017-09-15T17:09:25.214Z,2.20
2017-09-15T17:11:52.734Z,2.60
2017-09-15T17:14:20.252Z,2.97
2017-09-15T17:16:47.793Z,2.50
2017-09-15T17:19:15.288Z,2.47
2017-09-15T17:21:42.834Z,2.57
2017-09-15T17:24:10.345Z,2.30
2017-09-15T17:26:38.643Z,2.40
2017-09-15T17:29:06.148Z,2.67
2017-09-15T17:31:33.660Z,2.33
2017-09-15T17:34:01.207Z,2.33
2017-09-15T17:36:29.510Z,2.27
2017-09-15T17:38:57.014Z,2.30
2017-09-15T17:41:24.536Z,2.10
2017-09-15T17:43:52.036Z,2.77
2017-09-15T17:46:20.327Z,2.63
2017-09-15T17:48:48.609Z,2.57
2017-09-15T17:51:16.904Z,2.00
2017-09-15T17:53:44.418Z,2.60
2017-09-15T17:56:11.936Z,2.87
2017-09-15T17:58:39.479Z,3.40
2017-09-15T18:01:07.046Z,3.20
2017-09-15T18:03:34.564Z,3.10
2017-09-15T18:06:02.872Z,4.37
2017-09-15T18:08:30.442Z,5.03
2017-09-15T18:10:57.959Z,2.90
2017-09-15T18:13:26.259Z,3.00
2017-09-15T18:15:53.802Z,2.70
2017-09-15T18:18:22.069Z,3.17
2017-09-15T18:20:50.385Z,2.70
2017-09-15T18:23:17.892Z,1.70
2017-09-15T18:25:45.403Z,1.97
2017-09-15T18:28:12.938Z,1.83
2017-09-15T18:30:40.478Z,1.90
2017-09-15T18:33:08.798Z,1.70
2017-09-15T18:35:36.315Z,1.90
2017-09-15T18:38:04.631Z,2.07
2017-09-15T18:40:32.140Z,1.50
2017-09-15T18:42:59.650Z,2.17
2017-09-15T18:45:27.181Z,2.90
2017-09-15T18:47:54.735Z,2.27
2017-09-15T18:50:23.004Z,2.20
2017-09-15T18:52:51.318Z,2.30
2017-09-15T18:55:18.862Z,2.13
2017-09-15T18:57:46.391Z,2.80
2017-09-15T19:00:14.651Z,2.47
2017-09-15T19:02:42.152Z,2.53
2017-09-15T19:05:09.731Z,2.20
2017-09-15T19:07:37.231Z,3.43
2017-09-15T19:10:04.846Z,2.60
2017-09-15T19:12:32.356Z,1.90
2017-09-15T19:14:59.898Z,1.67
2017-09-15T19:17:27.397Z,2.17
2017-09-15T19:19:54.909Z,1.80
2017-09-15T19:22:22.438Z,1.93
2017-09-15T19:24:49.935Z,2.83
2017-09-15T19:27:17.558Z,2.53
2017-09-15T19:29:45.074Z,2.60
2017-09-15T19:32:13.353Z,2.70
2017-09-15T19:34:41.645Z,3.20
2017-09-15T19:37:09.167Z,3.30
2017-09-15T19:39:36.695Z,3.23
2017-09-15T19:42:04.351Z,3.07
2017-09-15T19:44:32.009Z,3.13
2017-09-15T19:46:59.576Z,3.03
2017-09-15T19:49:27.093Z,3.30
2017-09-15T19:51:55.380Z,3.53
2017-09-15T19:54:22.890Z,3.20
2017-09-15T19:56:50.418Z,3.13
2017-09-15T19:59:17.931Z,3.80
2017-09-15T20:01:46.220Z,4.03
2017-09-15T20:04:14.479Z,3.30
2017-09-15T20:06:42.030Z,4.23
2017-09-15T20:09:09.538Z,4.37
2017-09-15T20:11:37.058Z,3.90
2017-09-15T20:14:05.339Z,4.50
2017-09-15T20:16:33.608Z,4.20
2017-09-15T20:19:01.914Z,4.37
2017-09-15T20:21:29.429Z,4.20
2017-09-15T20:23:56.970Z,4.60
2017-09-15T20:26:24.491Z,5.17
2017-09-15T20:28:52.066Z,4.70
2017-09-15T20:31:19.581Z,4.30
2017-09-15T20:33:47.079Z,4.57
2017-09-15T20:36:14.617Z,5.13
2017-09-15T20:38:42.142Z,4.93
2017-09-15T20:41:09.768Z,4.87
2017-09-15T20:43:37.302Z,4.77
2017-09-15T20:46:04.830Z,5.17
2017-09-15T20:48:33.137Z,5.57
2017-09-15T20:51:00.667Z,5.63
2017-09-15T20:53:29.003Z,6.67
2017-09-15T20:55:56.491Z,6.97
2017-09-15T20:58:23.987Z,6.73
2017-09-15T21:00:51.528Z,6.77
2017-09-15T21:03:19.816Z,7.13
2017-09-15T21:05:47.358Z,7.30
2017-09-15T21:08:15.650Z,8.10
2017-09-15T21:10:43.182Z,8.53
2017-09-15T21:13:10.705Z,8.77
2017-09-15T21:15:38.204Z,8.30
2017-09-15T21:18:06.518Z,9.33
2017-09-15T21:20:34.032Z,8.63
2017-09-15T21:23:01.546Z,7.80
2017-09-15T21:25:29.078Z,9.00
2017-09-15T21:27:56.612Z,9.40
2017-09-15T21:30:24.147Z,9.37
2017-09-15T21:32:51.665Z,9.33
2017-09-15T21:35:19.199Z,8.23
2017-09-15T21:37:47.499Z,9.13
2017-09-15T21:40:14.999Z,7.93
2017-09-15T21:42:42.516Z,10.30
2017-09-15T21:45:10.063Z,9.67
2017-09-15T21:47:37.572Z,8.43
2017-09-15T21:50:05.100Z,9.70
2017-09-15T21:52:32.625Z,9.17
2017-09-15T21:55:00.910Z,9.50
2017-09-15T21:57:28.451Z,9.33
2017-09-15T21:59:56.750Z,10.07
2017-09-15T22:02:24.304Z,10.10
2017-09-15T22:04:51.854Z,10.07
2017-09-15T22:07:20.167Z,11.20
2017-09-15T22:09:47.718Z,10.50
2017-09-15T22:12:15.277Z,11.13
2017-09-15T22:14:42.794Z,12.10
2017-09-15T22:17:11.851Z,11.60
2017-09-15T22:19:39.368Z,12.97
2017-09-15T22:22:07.646Z,11.77
2017-09-15T22:24:35.191Z,13.50
2017-09-15T22:27:03.494Z,13.73
2017-09-15T22:29:31.041Z,13.53
2017-09-15T22:31:58.559Z,13.40
2017-09-15T22:34:26.110Z,13.00
2017-09-15T22:36:53.635Z,13.90
2017-09-15T22:39:21.149Z,13.67
2017-09-15T22:41:48.693Z,13.33
2017-09-15T22:44:16.211Z,16.77
2017-09-15T22:46:43.735Z,16.90
2017-09-15T22:49:12.037Z,17.23
2017-09-15T22:51:39.613Z,18.60
2017-09-15T22:54:07.167Z,18.47
2017-09-15T22:56:34.690Z,18.67
2017-09-15T22:59:02.966Z,19.33
2017-09-15T23:01:31.283Z,18.93
2017-09-15T23:03:58.842Z,18.73
2017-09-15T23:06:26.362Z,19.17
2017-09-15T23:08:54.679Z,16.90
2017-09-15T23:11:22.198Z,18.50
2017-09-15T23:13:50.477Z,19.23
2017-09-15T23:16:18.854Z,19.07
2017-09-15T23:18:47.142Z,18.83
2017-09-15T23:21:14.667Z,19.20
2017-09-15T23:23:42.206Z,19.30
2017-09-15T23:26:09.721Z,18.90
2017-09-15T23:28:37.269Z,19.17
2017-09-15T23:31:05.549Z,18.77
2017-09-15T23:33:33.839Z,20.30
2017-09-15T23:36:01.381Z,19.40
2017-09-15T23:38:29.658Z,19.57
2017-09-15T23:40:57.938Z,19.10
2017-09-15T23:43:25.493Z,19.60
2017-09-15T23:45:53.774Z,17.10
2017-09-15T23:48:21.293Z,20.27
2017-09-15T23:50:48.847Z,18.47
2017-09-15T23:53:16.362Z,18.80
2017-09-15T23:55:43.881Z,19.37
2017-09-15T23:58:11.434Z,19.63
